Time;durP1;ratioP1;P1;durP2;ratioP2;P2;SDS_P1;SDS_P2;PMS_P1;PMS_P2;Temp;Humidity;BMP_temperature;BMP_pressure;BME280_temperature;BME280_humidity;BME280_pressure;Samples;Min_cycle;Max_cycle;Signal;HPM_P1;HPM_P2
2021/10/29 00:02:55;;;;;;;33.17;15.77;;;;;;;6.39;76.21;100193.38;8584936;33;20213;-75
2021/10/29 00:07:59;;;;;;;36.45;16.23;;;;;;;6.43;75.90;100183.34;8575480;33;20573;-75
2021/10/29 00:13:03;;;;;;;35.40;17.42;;;;;;;6.28;76.59;100190.56;8600046;33;20412;-75
2021/10/29 00:18:06;;;;;;;34.30;15.73;;;;;;;6.32;76.70;100189.38;8592617;33;20552;-75
2021/10/29 00:23:10;;;;;;;36.67;16.40;;;;;;;6.39;76.40;100193.38;8598164;33;20147;-75
2021/10/29 00:28:13;;;;;;;35.65;16.70;;;;;;;6.49;75.97;100195.41;8588810;33;20407;-75
2021/10/29 00:33:16;;;;;;;36.17;16.00;;;;;;;6.32;76.43;100192.06;8584468;33;20411;-75
2021/10/29 00:38:21;;;;;;;37.90;17.30;;;;;;;6.22;77.27;100193.63;8584809;33;20515;-75
2021/10/29 00:43:24;;;;;;;36.13;16.23;;;;;;;6.25;77.39;100181.91;8587330;33;20139;-75
2021/10/29 00:48:27;;;;;;;35.75;17.67;;;;;;;6.37;77.58;100189.09;8588562;33;21151;-76
2021/10/29 00:53:33;;;;;;;34.92;16.52;;;;;;;6.33;77.87;100190.25;8562838;33;21194;-75
2021/10/29 00:58:36;;;;;;;37.65;16.58;;;;;;;6.40;77.35;100180.88;8587032;33;20210;-75
2021/10/29 01:03:42;;;;;;;34.22;16.02;;;;;;;6.40;77.08;100173.72;8600404;33;21155;-75
2021/10/29 01:08:46;;;;;;;36.03;15.07;;;;;;;6.40;77.05;100164.88;8600616;33;20284;-75
2021/10/29 01:13:51;;;;;;;34.45;16.10;;;;;;;6.40;77.09;100164.88;8603766;33;20588;-76
2021/10/29 01:18:54;;;;;;;37.22;16.60;;;;;;;6.31;77.68;100166.34;8605588;33;20195;-75
2021/10/29 01:23:58;;;;;;;38.42;17.38;;;;;;;6.35;77.65;100159.84;8606430;33;20721;-75
2021/10/29 01:29:01;;;;;;;30.50;15.70;;;;;;;6.26;78.26;100154.28;8609012;33;20501;-75
2021/10/29 01:34:04;;;;;;;36.05;16.02;;;;;;;6.31;78.13;100150.34;8601756;33;20520;-75
2021/10/29 01:39:09;;;;;;;38.58;16.80;;;;;;;6.33;77.78;100135.06;8600499;33;20921;-76
2021/10/29 01:44:12;;;;;;;32.65;15.73;;;;;;;6.38;77.72;100127.63;8598817;33;20185;-75
2021/10/29 01:49:17;;;;;;;42.67;17.00;;;;;;;6.23;78.50;100118.00;8597916;33;20573;-75
2021/10/29 01:54:24;;;;;;;34.03;15.73;;;;;;;6.21;78.39;100113.72;8585627;33;20234;-75
2021/10/29 01:59:32;;;;;;;32.85;16.83;;;;;;;6.15;78.74;100115.84;8587971;33;20886;-76
2021/10/29 02:04:35;;;;;;;37.88;17.52;;;;;;;6.20;78.81;100120.00;8592805;33;20471;-75
2021/10/29 02:09:39;;;;;;;36.40;17.27;;;;;;;6.17;78.79;100111.25;8584747;33;20354;-75
2021/10/29 02:14:43;;;;;;;38.40;17.65;;;;;;;6.02;79.02;100098.94;8582640;33;20408;-75
2021/10/29 02:19:46;;;;;;;38.90;17.30;;;;;;;6.10;78.98;100095.75;8598597;28;20182;-77
2021/10/29 02:24:50;;;;;;;34.72;17.77;;;;;;;6.12;78.60;100091.19;8583370;33;20667;-75
2021/10/29 02:29:53;;;;;;;38.35;16.55;;;;;;;6.14;78.53;100102.59;8591321;33;20518;-75
2021/10/29 02:34:56;;;;;;;36.85;15.65;;;;;;;6.19;78.04;100095.13;8652643;33;20410;-76
2021/10/29 02:40:01;;;;;;;36.83;16.60;;;;;;;6.18;78.37;100096.09;8655906;33;20422;-75
2021/10/29 02:45:05;;;;;;;36.55;17.33;;;;;;;6.16;78.39;100085.53;8656576;33;20514;-75
2021/10/29 02:50:09;;;;;;;37.80;16.50;;;;;;;6.16;78.50;100088.19;8647287;33;20529;-75
2021/10/29 02:55:15;;;;;;;36.53;16.95;;;;;;;6.05;79.21;100081.88;8640257;33;20544;-74
2021/10/29 03:00:19;;;;;;;39.05;16.75;;;;;;;6.11;78.92;100068.97;8615361;33;20640;-76
2021/10/29 03:05:22;;;;;;;34.03;15.80;;;;;;;6.16;78.85;100079.34;8638223;33;20253;-75
2021/10/29 03:10:26;;;;;;;36.88;15.60;;;;;;;6.10;78.89;100074.44;8639977;33;20213;-76
2021/10/29 03:15:30;;;;;;;29.77;14.65;;;;;;;6.09;79.19;100070.91;8638978;33;20507;-77
2021/10/29 03:20:33;;;;;;;40.13;19.10;;;;;;;6.09;79.37;100072.72;8638597;33;20146;-76
2021/10/29 03:25:37;;;;;;;32.00;16.30;;;;;;;6.14;79.14;100066.13;8638023;33;20677;-76
2021/10/29 03:30:41;;;;;;;32.63;15.73;;;;;;;6.17;78.89;100065.03;8638419;33;20591;-75
2021/10/29 03:35:44;;;;;;;36.92;16.13;;;;;;;6.12;79.24;100064.53;8640074;33;20668;-77
2021/10/29 03:40:53;;;;;;;35.80;16.02;;;;;;;6.17;79.53;100057.91;8638179;33;20643;-75
2021/10/29 03:46:00;;;;;;;32.95;15.05;;;;;;;6.26;78.75;100058.25;8637999;33;20195;-76
2021/10/29 03:51:09;;;;;;;31.83;15.18;;;;;;;6.10;79.27;100045.09;8637372;33;20147;-76
2021/10/29 03:56:19;;;;;;;36.28;16.08;;;;;;;6.10;79.50;100053.09;8628764;33;20965;-76
2021/10/29 04:01:23;;;;;;;34.78;15.25;;;;;;;6.18;78.97;100045.44;8628424;33;20248;-75
2021/10/29 04:06:26;;;;;;;39.13;15.80;;;;;;;6.08;79.46;100045.19;8631653;33;20144;-76
2021/10/29 04:11:36;;;;;;;34.22;15.25;;;;;;;6.15;79.08;100034.97;8611559;33;20181;-76
2021/10/29 04:16:40;;;;;;;36.78;16.90;;;;;;;6.06;79.81;100041.78;8637135;33;20140;-77
2021/10/29 04:21:43;;;;;;;35.15;17.13;;;;;;;6.14;79.57;100035.91;8610876;33;20438;-75
2021/10/29 04:26:49;;;;;;;37.33;16.70;;;;;;;6.15;79.94;100025.16;8629729;33;20140;-75
2021/10/29 04:31:53;;;;;;;33.85;16.17;;;;;;;6.16;79.64;100021.53;8632643;33;20608;-74
2021/10/29 04:36:59;;;;;;;35.65;16.58;;;;;;;6.19;80.04;100012.44;8639215;33;20691;-75
2021/10/29 04:42:05;;;;;;;33.63;16.63;;;;;;;6.09;80.63;100008.72;8653401;33;20581;-75
2021/10/29 04:47:08;;;;;;;34.55;15.98;;;;;;;6.14;80.08;100002.13;8655300;33;20186;-77
2021/10/29 04:52:11;;;;;;;34.80;17.08;;;;;;;6.12;80.32;99998.69;8655157;33;20408;-75
2021/10/29 04:57:16;;;;;;;38.22;17.42;;;;;;;6.10;80.60;99991.75;8655652;33;20416;-75
2021/10/29 05:02:19;;;;;;;39.08;17.75;;;;;;;6.10;80.72;99984.59;8658743;33;20221;-75
2021/10/29 05:07:22;;;;;;;38.88;17.30;;;;;;;6.13;80.42;99972.88;8660284;33;20473;-76
2021/10/29 05:12:27;;;;;;;41.28;17.48;;;;;;;6.04;81.06;99979.72;8635042;33;20407;-76
2021/10/29 05:17:30;;;;;;;33.75;15.70;;;;;;;6.08;80.90;99991.00;8622049;33;20152;-76
2021/10/29 05:22:33;;;;;;;36.40;17.52;;;;;;;6.15;80.53;99970.97;8644549;33;20236;-76
2021/10/29 05:27:39;;;;;;;36.25;17.40;;;;;;;6.16;80.64;99975.34;8651635;33;20233;-78
2021/10/29 05:32:42;;;;;;;37.28;18.10;;;;;;;6.16;80.31;99970.84;8646238;33;20222;-76
2021/10/29 05:37:45;;;;;;;35.35;14.88;;;;;;;6.11;80.26;99966.78;8647673;33;20285;-78
2021/10/29 05:42:49;;;;;;;35.85;16.67;;;;;;;6.28;79.69;99962.94;8647082;33;20155;-76
2021/10/29 05:47:52;;;;;;;35.22;17.23;;;;;;;6.24;79.58;99964.97;8642436;33;20424;-76
2021/10/29 05:52:56;;;;;;;40.85;17.25;;;;;;;6.35;79.38;99967.75;8645638;33;20427;-80
2021/10/29 05:58:01;;;;;;;27.25;16.08;;;;;;;6.35;79.42;99970.41;8644457;33;20423;-77
2021/10/29 06:03:06;;;;;;;39.15;17.98;;;;;;;6.29;79.54;99968.19;8643390;33;20194;-78
2021/10/29 06:08:09;;;;;;;31.98;16.73;;;;;;;6.38;79.19;99974.69;8658157;33;20614;-75
2021/10/29 06:13:13;;;;;;;38.00;17.17;;;;;;;6.41;78.79;99971.81;8685659;33;20147;-75
2021/10/29 06:18:23;;;;;;;38.20;17.55;;;;;;;6.45;78.69;99970.66;8674776;33;20416;-78
2021/10/29 06:23:34;;;;;;;37.60;17.70;;;;;;;6.39;78.83;99971.94;8647501;33;20193;-76
2021/10/29 06:28:38;;;;;;;41.10;18.38;;;;;;;6.42;79.05;99973.53;8644661;33;20139;-78
2021/10/29 06:33:41;;;;;;;37.13;17.48;;;;;;;6.52;78.71;99982.56;8644659;33;20693;-77
2021/10/29 06:38:44;;;;;;;34.67;15.80;;;;;;;6.58;78.62;99978.63;8634410;33;20471;-76
2021/10/29 06:44:01;;;;;;;33.90;15.52;;;;;;;6.70;78.10;99988.44;8656452;33;20412;-77
2021/10/29 06:49:10;;;;;;;32.95;16.75;;;;;;;6.95;77.50;99987.56;8647575;33;20504;-76
2021/10/29 06:59:48;;;;;;;34.15;17.02;;;;;;;7.88;74.43;99986.94;8604769;33;20412;-77
2021/10/29 07:42:29;;;;;;;35.03;15.55;;;;;;;9.12;70.53;99995.94;8641347;33;20663;-77
2021/10/29 07:47:34;;;;;;;39.58;17.65;;;;;;;9.48;69.34;99985.84;8640195;33;20480;-77
2021/10/29 07:52:39;;;;;;;36.50;18.00;;;;;;;9.61;69.20;99988.38;8640350;33;20554;-75
2021/10/29 07:57:44;;;;;;;36.88;19.10;;;;;;;9.80;68.59;99998.44;8641124;33;20178;-76
2021/10/29 08:02:51;;;;;;;40.03;19.52;;;;;;;10.25;67.46;99988.31;8642289;33;20147;-77
2021/10/29 08:07:55;;;;;;;34.17;17.65;;;;;;;10.52;67.10;99993.13;8641388;33;20245;-76
2021/10/29 08:12:58;;;;;;;35.33;17.83;;;;;;;10.22;67.40;99990.41;8638438;33;20429;-77
2021/10/29 08:18:04;;;;;;;34.35;17.70;;;;;;;10.33;67.38;99987.66;8637945;33;20512;-77
2021/10/29 08:23:11;;;;;;;38.72;18.45;;;;;;;10.38;67.55;99990.81;8637943;33;20361;-75
2021/10/29 08:28:14;;;;;;;34.92;17.55;;;;;;;10.42;67.41;99992.22;8634955;33;20298;-76
2021/10/29 08:33:26;;;;;;;35.65;18.75;;;;;;;11.12;65.51;99985.19;8634183;33;20647;-76
2021/10/29 08:38:30;;;;;;;29.75;17.13;;;;;;;11.78;63.52;99975.66;8637505;33;20957;-76
2021/10/29 08:43:50;;;;;;;31.73;16.35;;;;;;;12.21;63.05;99966.25;8616137;33;20174;-78
2021/10/29 08:48:55;;;;;;;28.02;15.27;;;;;;;12.64;61.28;99963.00;8641034;33;20245;-77
2021/10/29 08:53:58;;;;;;;31.50;17.80;;;;;;;12.89;60.57;99961.50;8641253;33;20413;-77
2021/10/29 08:59:10;;;;;;;30.52;15.80;;;;;;;12.81;60.60;99962.25;8616766;33;20512;-76
2021/10/29 09:04:17;;;;;;;30.93;15.77;;;;;;;13.28;60.17;99950.50;8648247;33;20517;-76
2021/10/29 09:09:36;;;;;;;26.95;15.60;;;;;;;13.91;58.87;99960.38;8622215;33;20139;-73
2021/10/29 09:31:29;;;;;;;10.20;6.53;;;;;;;15.45;51.71;99964.09;8642494;33;20472;-76
2021/10/29 09:36:37;;;;;;;10.50;6.93;;;;;;;15.56;51.03;99955.66;8636750;33;20143;-77
2021/10/29 09:41:40;;;;;;;9.10;6.05;;;;;;;15.58;50.78;99956.34;8635146;33;20620;-76
2021/10/29 09:46:53;;;;;;;9.73;6.80;;;;;;;15.89;50.63;99940.25;8634568;33;20449;-76
2021/10/29 09:57:28;;;;;;;10.30;6.65;;;;;;;15.63;50.62;99934.16;8561853;33;20447;-77
2021/10/29 10:02:31;;;;;;;11.00;6.45;;;;;;;15.58;50.57;99926.56;8640579;33;20234;-76
2021/10/29 10:07:38;;;;;;;11.25;6.75;;;;;;;15.47;51.33;99924.19;8635452;33;20547;-77
2021/10/29 10:12:44;;;;;;;11.13;7.45;;;;;;;15.41;51.61;99928.41;8633049;33;20224;-76
2021/10/29 10:17:51;;;;;;;11.07;6.75;;;;;;;15.75;50.84;99924.69;8635579;33;20192;-76
2021/10/29 10:22:56;;;;;;;8.95;6.32;;;;;;;16.18;50.19;99919.06;8636939;33;20140;-76
2021/10/29 10:44:42;;;;;;;11.93;6.32;;;;;;;17.42;46.93;99892.13;8637842;33;20143;-77
2021/10/29 10:49:49;;;;;;;8.63;5.93;;;;;;;17.31;47.09;99873.53;8635418;33;20500;-77
2021/10/29 10:55:00;;;;;;;7.88;5.88;;;;;;;16.54;49.37;99871.56;8635054;33;20281;-76
2021/10/29 11:00:15;;;;;;;10.13;6.15;;;;;;;16.36;49.65;99860.94;8643122;33;20324;-76
2021/10/29 11:05:32;;;;;;;9.18;6.15;;;;;;;16.57;49.52;99846.81;8639093;33;20459;-76
2021/10/29 11:10:43;;;;;;;9.35;5.75;;;;;;;17.38;47.74;99833.78;8634509;33;20445;-76
2021/10/29 11:15:59;;;;;;;9.43;5.60;;;;;;;17.31;47.76;99837.44;8634072;33;20205;-76
2021/10/29 11:21:12;;;;;;;6.88;5.18;;;;;;;17.18;48.21;99825.28;8632859;33;20404;-76
2021/10/29 11:26:28;;;;;;;9.75;6.25;;;;;;;16.91;49.13;99818.47;8634961;33;20143;-76
2021/10/29 11:31:34;;;;;;;8.50;5.70;;;;;;;17.44;48.23;99816.78;8641976;33;20451;-76
2021/10/29 11:36:40;;;;;;;10.00;6.65;;;;;;;17.38;47.98;99817.47;8641476;33;20139;-76
2021/10/29 11:41:48;;;;;;;9.48;6.25;;;;;;;18.21;47.01;99812.97;8642708;33;20192;-76
2021/10/29 11:46:56;;;;;;;12.00;7.38;;;;;;;19.07;44.85;99805.03;8643696;33;20146;-76
2021/10/29 11:52:04;;;;;;;11.70;8.68;;;;;;;18.88;45.34;99800.22;8641402;33;20416;-76
2021/10/29 11:57:24;;;;;;;12.32;8.25;;;;;;;18.33;46.23;99797.84;8635661;33;20627;-76
2021/10/29 12:07:49;;;;;;;13.95;8.57;;;;;;;19.02;44.82;99800.16;8643092;33;20415;-75
2021/10/29 12:12:57;;;;;;;12.18;8.40;;;;;;;18.04;46.26;99797.88;8640229;33;20509;-76
2021/10/29 12:18:04;;;;;;;15.65;9.65;;;;;;;16.31;50.58;99779.31;8640447;33;20283;-75
2021/10/29 12:23:12;;;;;;;13.85;9.50;;;;;;;15.36;53.16;99768.41;8638856;33;20187;-75
2021/10/29 12:28:22;;;;;;;12.93;9.13;;;;;;;15.72;53.48;99767.16;8639291;33;20412;-75
2021/10/29 13:06:21;;;;;;;14.05;8.77;;;;;;;14.43;57.16;99709.16;8639042;33;20146;-75
2021/10/29 13:11:25;;;;;;;14.20;9.10;;;;;;;14.27;57.81;99692.88;8639724;33;20159;-75
2021/10/29 13:16:30;;;;;;;16.67;9.43;;;;;;;14.21;58.64;99677.34;8561684;33;20152;-75
2021/10/29 13:27:37;;;;;;;14.75;10.00;;;;;;;14.37;58.03;99672.81;8545945;33;20453;-76
2021/10/29 13:54:19;;;;;;;16.13;9.25;;;;;;;16.02;53.96;99695.13;8724162;33;20457;-76
2021/10/29 14:31:43;;;;;;;8.90;6.35;;;;;;;14.36;55.96;99660.28;8739438;33;20377;-75
2021/10/29 14:36:53;;;;;;;9.68;6.40;;;;;;;13.94;56.23;99654.97;8739972;33;20148;-76
2021/10/29 14:42:04;;;;;;;9.98;6.60;;;;;;;13.70;56.95;99644.94;8740466;33;20187;-74
2021/10/29 15:30:13;;;;;;;9.20;6.50;;;;;;;14.03;54.84;99605.38;8717413;33;20840;-75
2021/10/29 15:41:11;;;;;;;10.80;7.20;;;;;;;13.76;55.43;99627.25;8717700;33;20184;-75
2021/10/29 15:46:17;;;;;;;9.05;6.95;;;;;;;13.39;56.56;99623.88;8718235;32;20188;-75
2021/10/29 15:51:22;;;;;;;8.75;6.25;;;;;;;13.14;57.12;99638.22;8717979;32;20244;-74
2021/10/29 15:56:32;;;;;;;9.52;7.22;;;;;;;12.79;58.34;99640.00;8717867;32;21614;-75
2021/10/29 16:01:40;;;;;;;9.98;7.72;;;;;;;12.50;59.21;99629.47;8706349;32;20282;-75
2021/10/29 16:17:27;;;;;;;14.27;9.05;;;;;;;12.20;60.20;99609.97;8665876;33;20184;-76
2021/10/29 16:22:34;;;;;;;11.77;7.53;;;;;;;12.13;60.35;99615.13;8658844;33;20634;-76
2021/10/29 16:27:45;;;;;;;12.93;8.05;;;;;;;11.92;61.16;99618.09;8658594;33;20573;-75
2021/10/29 16:33:18;;;;;;;12.80;7.82;;;;;;;11.87;61.49;99631.16;8707948;33;20729;-77
2021/10/29 16:38:23;;;;;;;11.75;7.88;;;;;;;11.84;61.55;99630.63;8717907;33;20653;-76
2021/10/29 16:43:27;;;;;;;11.73;7.70;;;;;;;11.88;61.51;99632.88;8723559;33;20217;-77
2021/10/29 16:48:30;;;;;;;11.80;7.72;;;;;;;11.79;61.76;99620.31;8716454;33;20184;-76
2021/10/29 16:53:34;;;;;;;12.23;8.50;;;;;;;11.80;61.86;99626.56;8716179;33;20254;-77
2021/10/29 16:58:37;;;;;;;14.30;8.50;;;;;;;11.77;62.01;99633.09;8715738;33;20152;-76
2021/10/29 17:03:40;;;;;;;12.35;8.20;;;;;;;11.48;62.59;99614.41;8715427;33;20195;-76
2021/10/29 17:08:45;;;;;;;12.23;7.53;;;;;;;11.58;62.44;99622.44;8716504;33;20156;-76
2021/10/29 17:13:48;;;;;;;14.77;8.55;;;;;;;11.69;62.20;99631.16;8715773;33;20187;-77
2021/10/29 17:18:51;;;;;;;17.88;8.68;;;;;;;11.66;62.36;99626.06;8716252;33;20244;-77
2021/10/29 17:23:56;;;;;;;15.05;9.77;;;;;;;11.53;62.75;99632.78;8715086;33;21545;-77
2021/10/29 17:28:59;;;;;;;13.82;9.32;;;;;;;11.53;62.59;99630.94;8664886;33;20229;-76
2021/10/29 17:34:02;;;;;;;12.85;8.85;;;;;;;11.44;63.01;99635.38;8657418;33;20911;-77
2021/10/29 17:39:11;;;;;;;13.43;8.90;;;;;;;11.56;62.72;99632.50;8657188;33;20916;-76
2021/10/29 17:44:15;;;;;;;14.15;8.63;;;;;;;11.43;63.04;99630.97;8694933;33;20187;-77
2021/10/29 17:49:18;;;;;;;14.18;8.23;;;;;;;11.34;63.43;99623.81;8655824;33;20192;-76
2021/10/29 17:54:23;;;;;;;14.60;8.98;;;;;;;11.41;63.03;99626.75;8657055;33;20167;-76
2021/10/29 17:59:26;;;;;;;15.15;9.85;;;;;;;11.48;62.84;99644.81;8670412;33;20129;-76
2021/10/29 18:04:29;;;;;;;13.90;8.80;;;;;;;11.54;62.69;99658.69;8673688;33;20352;-76
2021/10/29 18:09:37;;;;;;;15.57;8.88;;;;;;;11.48;62.53;99652.91;8660219;33;20145;-77
2021/10/29 18:14:42;;;;;;;12.95;8.82;;;;;;;11.49;62.57;99653.72;8657883;33;20129;-77
2021/10/29 18:19:46;;;;;;;14.50;9.50;;;;;;;11.54;62.47;99651.44;8658635;33;20200;-77
2021/10/29 18:24:50;;;;;;;13.45;8.02;;;;;;;11.62;62.11;99646.19;8658189;33;20188;-76
2021/10/29 18:29:56;;;;;;;14.15;8.32;;;;;;;11.54;62.41;99656.84;8660738;33;20172;-77
2021/10/29 18:34:59;;;;;;;13.93;8.23;;;;;;;11.61;62.15;99674.09;8675812;33;20698;-76
2021/10/29 18:40:06;;;;;;;12.43;8.30;;;;;;;11.54;62.45;99672.97;8720695;33;20211;-77
2021/10/29 18:45:10;;;;;;;12.60;8.00;;;;;;;11.42;62.86;99682.22;8718691;33;20210;-76
2021/10/29 18:50:13;;;;;;;15.20;8.25;;;;;;;11.39;63.20;99679.84;8717784;33;20888;-76
2021/10/29 18:55:18;;;;;;;11.60;7.65;;;;;;;11.29;63.45;99674.47;8718070;33;20621;-76
2021/10/29 19:00:21;;;;;;;14.70;9.38;;;;;;;11.32;63.28;99682.25;8716717;33;20242;-76
2021/10/29 19:05:24;;;;;;;12.52;8.38;;;;;;;11.24;63.69;99679.44;8691837;33;20188;-76
2021/10/29 19:10:29;;;;;;;12.32;8.20;;;;;;;11.24;63.87;99687.50;8658417;33;20518;-76
2021/10/29 19:15:32;;;;;;;14.93;9.10;;;;;;;11.11;64.26;99681.56;8659244;33;20728;-76
2021/10/29 19:20:35;;;;;;;15.85;8.85;;;;;;;11.15;64.18;99683.00;8659883;33;20156;-76
2021/10/29 19:25:40;;;;;;;13.77;8.48;;;;;;;11.15;64.16;99681.16;8660105;33;20714;-76
2021/10/29 19:30:43;;;;;;;18.38;8.20;;;;;;;11.02;64.52;99685.97;8660429;33;20676;-76
2021/10/29 19:35:52;;;;;;;17.05;8.27;;;;;;;11.11;64.38;99697.69;8659207;33;20410;-76
2021/10/29 19:40:59;;;;;;;14.88;9.73;;;;;;;11.05;64.43;99677.63;8659200;33;20661;-76
2021/10/29 19:46:03;;;;;;;18.58;11.18;;;;;;;10.97;64.85;99681.06;8660145;33;21574;-76
2021/10/29 19:51:06;;;;;;;14.73;9.05;;;;;;;11.02;64.60;99683.28;8658925;33;20184;-76
2021/10/29 19:56:10;;;;;;;12.32;8.15;;;;;;;10.97;64.79;99682.88;8659783;33;20431;-76
2021/10/29 20:01:13;;;;;;;14.70;7.95;;;;;;;10.93;64.83;99678.78;8659706;33;20803;-77
2021/10/29 20:06:17;;;;;;;13.05;8.57;;;;;;;10.92;64.89;99680.63;8660183;33;21746;-76
2021/10/29 20:11:21;;;;;;;15.73;8.85;;;;;;;10.97;64.93;99677.50;8658982;33;20192;-76
2021/10/29 20:16:24;;;;;;;15.23;8.15;;;;;;;10.99;64.68;99686.25;8658831;33;20471;-75
2021/10/29 20:21:28;;;;;;;14.52;8.30;;;;;;;10.96;64.54;99686.56;8659451;33;20175;-76
2021/10/29 20:26:32;;;;;;;13.43;8.20;;;;;;;11.03;64.23;99688.53;8658912;33;20201;-76
2021/10/29 20:31:35;;;;;;;12.57;8.00;;;;;;;11.04;64.27;99690.22;8658357;33;21583;-76
2021/10/29 20:36:40;;;;;;;12.23;7.75;;;;;;;10.98;64.38;99698.00;8657645;33;20597;-76
2021/10/29 20:41:44;;;;;;;11.23;7.28;;;;;;;11.06;64.07;99696.28;8658600;33;20668;-76
2021/10/29 20:46:54;;;;;;;10.48;7.55;;;;;;;11.14;63.71;99706.38;8656603;33;20199;-75
2021/10/29 20:51:57;;;;;;;11.00;6.32;;;;;;;11.11;63.31;99703.94;8656341;33;20238;-76
2021/10/29 20:57:01;;;;;;;11.13;7.07;;;;;;;11.35;62.88;99700.78;8655982;33;20184;-75
2021/10/29 21:02:04;;;;;;;8.50;6.43;;;;;;;11.36;62.67;99702.50;8690272;33;20612;-76
2021/10/29 21:07:07;;;;;;;12.05;6.68;;;;;;;11.27;62.55;99708.72;8713090;33;20712;-76
2021/10/29 21:12:12;;;;;;;8.13;6.30;;;;;;;11.44;62.15;99709.84;8706905;33;20224;-76
2021/10/29 21:17:16;;;;;;;10.85;6.70;;;;;;;11.50;61.76;99714.63;8719005;33;20183;-78
2021/10/29 21:22:19;;;;;;;9.27;6.35;;;;;;;11.56;61.52;99724.78;8719612;33;20190;-77
2021/10/29 21:27:23;;;;;;;7.95;6.03;;;;;;;11.60;61.29;99731.56;8715773;33;20206;-77
2021/10/29 21:32:26;;;;;;;9.93;6.38;;;;;;;11.75;60.88;99742.69;8715644;33;20275;-77
2021/10/29 21:37:29;;;;;;;10.30;6.70;;;;;;;11.83;60.58;99733.91;8687138;33;20149;-77
2021/10/29 21:42:34;;;;;;;10.35;5.75;;;;;;;11.82;60.57;99738.44;8657882;33;20242;-77
2021/10/29 21:47:37;;;;;;;7.97;5.93;;;;;;;11.80;60.77;99724.28;8657381;33;20246;-77
2021/10/29 21:52:44;;;;;;;9.35;6.20;;;;;;;11.83;61.13;99741.97;8706792;32;20428;-77
2021/10/29 21:57:48;;;;;;;10.45;6.10;;;;;;;11.76;60.91;99736.31;8705645;33;21904;-77
2021/10/29 22:02:51;;;;;;;8.45;5.80;;;;;;;11.78;61.06;99738.88;8717233;33;20974;-77
2021/10/29 22:07:54;;;;;;;10.30;6.90;;;;;;;11.77;61.11;99729.13;8718835;33;20210;-77
2021/10/29 22:12:59;;;;;;;20.00;10.43;;;;;;;11.77;60.90;99727.25;8723156;33;20282;-77
2021/10/29 22:18:02;;;;;;;11.13;7.07;;;;;;;11.82;60.67;99724.09;8718659;33;20546;-77
2021/10/29 22:23:07;;;;;;;10.13;6.57;;;;;;;11.80;60.67;99716.19;8720427;33;20435;-77
2021/10/29 22:28:12;;;;;;;7.25;5.50;;;;;;;11.72;60.82;99716.94;8728077;33;20430;-77
2021/10/29 22:33:15;;;;;;;12.63;6.13;;;;;;;11.71;60.80;99715.25;8718759;33;20271;-77
2021/10/29 22:38:18;;;;;;;8.88;4.70;;;;;;;11.67;60.84;99711.16;8718531;33;21284;-77
2021/10/29 22:43:23;;;;;;;8.07;5.18;;;;;;;11.62;60.96;99699.97;8718344;33;20946;-77
2021/10/29 22:48:27;;;;;;;6.80;4.68;;;;;;;11.60;60.36;99704.69;8719122;33;20549;-77
2021/10/29 22:53:30;;;;;;;5.63;4.63;;;;;;;11.53;61.07;99702.72;8716519;33;20155;-77
2021/10/29 22:58:35;;;;;;;6.13;4.78;;;;;;;11.53;60.90;99697.34;8718287;33;20144;-77
2021/10/29 23:03:38;;;;;;;6.85;5.15;;;;;;;11.52;60.72;99695.63;8717554;33;20311;-77
2021/10/29 23:08:41;;;;;;;6.43;4.72;;;;;;;11.58;60.50;99695.06;8718196;33;20637;-77
2021/10/29 23:13:46;;;;;;;8.90;4.68;;;;;;;11.70;59.91;99692.00;8717215;33;20228;-77
2021/10/29 23:18:49;;;;;;;7.60;4.85;;;;;;;11.80;59.44;99689.28;8717672;33;20252;-77
2021/10/29 23:23:52;;;;;;;6.47;5.00;;;;;;;11.88;59.04;99684.00;8716560;33;20286;-77
2021/10/29 23:29:17;;;;;;;7.45;4.45;;;;;;;11.85;59.05;99687.00;8715670;33;20135;-77
2021/10/29 23:34:20;;;;;;;6.78;4.32;;;;;;;11.94;58.67;99694.16;8716733;33;20648;-75
2021/10/29 23:39:23;;;;;;;6.05;4.30;;;;;;;11.93;58.39;99686.25;8715572;33;20331;-77
2021/10/29 23:44:27;;;;;;;6.78;4.00;;;;;;;11.99;58.27;99687.50;8716011;33;20233;-77
2021/10/29 23:49:31;;;;;;;6.22;4.55;;;;;;;11.88;58.33;99694.78;8715272;33;21138;-77
2021/10/29 23:54:36;;;;;;;9.02;4.78;;;;;;;11.87;58.59;99690.38;8715905;33;20275;-77
2021/10/29 23:59:41;;;;;;;5.60;4.15;;;;;;;11.75;59.06;99685.34;8723912;33;20286;-77
